sensor_id;sensor_type;location;lat;lon;timestamp;P1;durP1;ratioP1;P2;durP2;ratioP2
27201;SDS011;14717;46.924;15.474;2023-03-14T00:02:21;11.10;;;5.22;;
27201;SDS011;14717;46.924;15.474;2023-03-14T00:04:48;13.00;;;5.70;;
27201;SDS011;14717;46.924;15.474;2023-03-14T00:09:38;10.00;;;5.30;;
27201;SDS011;14717;46.924;15.474;2023-03-14T00:12:04;12.10;;;5.90;;
27201;SDS011;14717;46.924;15.474;2023-03-14T00:14:30;13.88;;;5.53;;
27201;SDS011;14717;46.924;15.474;2023-03-14T00:19:21;14.52;;;5.53;;
27201;SDS011;14717;46.924;15.474;2023-03-14T00:21:47;11.98;;;5.28;;
27201;SDS011;14717;46.924;15.474;2023-03-14T00:24:12;10.82;;;5.88;;
27201;SDS011;14717;46.924;15.474;2023-03-14T00:26:38;12.95;;;5.90;;
27201;SDS011;14717;46.924;15.474;2023-03-14T00:29:03;12.27;;;5.95;;
27201;SDS011;14717;46.924;15.474;2023-03-14T00:31:29;13.48;;;5.68;;
27201;SDS011;14717;46.924;15.474;2023-03-14T00:33:54;15.98;;;5.85;;
27201;SDS011;14717;46.924;15.474;2023-03-14T00:36:20;16.45;;;6.85;;
27201;SDS011;14717;46.924;15.474;2023-03-14T00:38:46;11.25;;;5.07;;
27201;SDS011;14717;46.924;15.474;2023-03-14T00:41:14;13.75;;;5.50;;
27201;SDS011;14717;46.924;15.474;2023-03-14T00:43:42;9.50;;;5.13;;
27201;SDS011;14717;46.924;15.474;2023-03-14T00:46:08;10.57;;;4.40;;
27201;SDS011;14717;46.924;15.474;2023-03-14T00:48:33;10.65;;;4.53;;
27201;SDS011;14717;46.924;15.474;2023-03-14T00:50:59;8.52;;;3.97;;
27201;SDS011;14717;46.924;15.474;2023-03-14T00:53:24;5.32;;;3.05;;
27201;SDS011;14717;46.924;15.474;2023-03-14T00:55:50;5.35;;;2.65;;
27201;SDS011;14717;46.924;15.474;2023-03-14T00:58:16;7.60;;;3.42;;
27201;SDS011;14717;46.924;15.474;2023-03-14T01:00:42;5.50;;;2.65;;
27201;SDS011;14717;46.924;15.474;2023-03-14T01:03:09;5.85;;;3.40;;
27201;SDS011;14717;46.924;15.474;2023-03-14T01:05:35;5.05;;;2.72;;
27201;SDS011;14717;46.924;15.474;2023-03-14T01:08:01;5.35;;;2.83;;
27201;SDS011;14717;46.924;15.474;2023-03-14T01:10:27;4.88;;;1.60;;
27201;SDS011;14717;46.924;15.474;2023-03-14T01:12:52;5.10;;;1.48;;
27201;SDS011;14717;46.924;15.474;2023-03-14T01:15:18;5.00;;;1.40;;
27201;SDS011;14717;46.924;15.474;2023-03-14T01:17:43;2.03;;;1.10;;
27201;SDS011;14717;46.924;15.474;2023-03-14T01:20:10;3.00;;;1.35;;
27201;SDS011;14717;46.924;15.474;2023-03-14T01:22:38;2.03;;;0.90;;
27201;SDS011;14717;46.924;15.474;2023-03-14T01:25:09;1.85;;;1.05;;
27201;SDS011;14717;46.924;15.474;2023-03-14T01:27:36;2.97;;;0.98;;
27201;SDS011;14717;46.924;15.474;2023-03-14T01:30:02;4.70;;;1.20;;
27201;SDS011;14717;46.924;15.474;2023-03-14T01:32:29;3.42;;;0.90;;
27201;SDS011;14717;46.924;15.474;2023-03-14T01:34:55;4.65;;;1.00;;
27201;SDS011;14717;46.924;15.474;2023-03-14T01:37:20;1.55;;;0.95;;
27201;SDS011;14717;46.924;15.474;2023-03-14T01:39:48;8.45;;;1.02;;
27201;SDS011;14717;46.924;15.474;2023-03-14T01:42:14;2.55;;;0.85;;
27201;SDS011;14717;46.924;15.474;2023-03-14T01:50:16;0.80;;;0.70;;
27201;SDS011;14717;46.924;15.474;2023-03-14T01:52:44;2.72;;;1.00;;
27201;SDS011;14717;46.924;15.474;2023-03-14T01:55:24;2.45;;;0.73;;
27201;SDS011;14717;46.924;15.474;2023-03-14T01:57:54;2.30;;;0.98;;
27201;SDS011;14717;46.924;15.474;2023-03-14T02:00:25;2.20;;;0.80;;
27201;SDS011;14717;46.924;15.474;2023-03-14T02:02:51;1.33;;;0.90;;
27201;SDS011;14717;46.924;15.474;2023-03-14T02:05:25;1.67;;;1.20;;
27201;SDS011;14717;46.924;15.474;2023-03-14T02:07:54;1.65;;;1.00;;
27201;SDS011;14717;46.924;15.474;2023-03-14T02:10:25;3.28;;;1.17;;
27201;SDS011;14717;46.924;15.474;2023-03-14T02:12:53;2.72;;;1.10;;
27201;SDS011;14717;46.924;15.474;2023-03-14T02:15:21;4.03;;;1.00;;
27201;SDS011;14717;46.924;15.474;2023-03-14T02:20:23;2.72;;;1.02;;
27201;SDS011;14717;46.924;15.474;2023-03-14T02:22:51;2.47;;;1.00;;
27201;SDS011;14717;46.924;15.474;2023-03-14T02:25:24;3.40;;;1.20;;
27201;SDS011;14717;46.924;15.474;2023-03-14T02:27:59;2.33;;;0.93;;
27201;SDS011;14717;46.924;15.474;2023-03-14T02:30:27;3.05;;;1.00;;
27201;SDS011;14717;46.924;15.474;2023-03-14T02:32:55;7.38;;;1.25;;
27201;SDS011;14717;46.924;15.474;2023-03-14T02:35:26;1.95;;;1.00;;
27201;SDS011;14717;46.924;15.474;2023-03-14T02:37:55;1.88;;;0.90;;
27201;SDS011;14717;46.924;15.474;2023-03-14T02:40:25;3.58;;;0.85;;
27201;SDS011;14717;46.924;15.474;2023-03-14T02:42:51;2.90;;;1.00;;
27201;SDS011;14717;46.924;15.474;2023-03-14T02:47:43;1.38;;;0.88;;
27201;SDS011;14717;46.924;15.474;2023-03-14T02:50:13;2.33;;;1.00;;
27201;SDS011;14717;46.924;15.474;2023-03-14T02:52:42;1.70;;;1.00;;
27201;SDS011;14717;46.924;15.474;2023-03-14T02:55:08;2.22;;;0.98;;
27201;SDS011;14717;46.924;15.474;2023-03-14T02:59:59;2.80;;;1.00;;
27201;SDS011;14717;46.924;15.474;2023-03-14T03:04:51;1.65;;;0.80;;
27201;SDS011;14717;46.924;15.474;2023-03-14T03:07:16;1.50;;;0.82;;
27201;SDS011;14717;46.924;15.474;2023-03-14T03:09:41;1.27;;;1.00;;
27201;SDS011;14717;46.924;15.474;2023-03-14T03:12:07;2.95;;;1.10;;
27201;SDS011;14717;46.924;15.474;2023-03-14T03:14:32;1.75;;;0.90;;
27201;SDS011;14717;46.924;15.474;2023-03-14T03:16:57;3.90;;;1.35;;
27201;SDS011;14717;46.924;15.474;2023-03-14T03:19:23;2.00;;;1.10;;
27201;SDS011;14717;46.924;15.474;2023-03-14T03:21:48;2.35;;;1.23;;
27201;SDS011;14717;46.924;15.474;2023-03-14T03:24:14;4.47;;;1.42;;
27201;SDS011;14717;46.924;15.474;2023-03-14T03:26:39;1.60;;;1.10;;
27201;SDS011;14717;46.924;15.474;2023-03-14T03:29:04;2.70;;;1.00;;
27201;SDS011;14717;46.924;15.474;2023-03-14T03:31:30;2.08;;;1.10;;
27201;SDS011;14717;46.924;15.474;2023-03-14T03:33:56;2.33;;;1.35;;
27201;SDS011;14717;46.924;15.474;2023-03-14T03:36:22;2.58;;;1.17;;
27201;SDS011;14717;46.924;15.474;2023-03-14T03:38:49;3.10;;;1.08;;
27201;SDS011;14717;46.924;15.474;2023-03-14T03:41:14;1.95;;;0.98;;
27201;SDS011;14717;46.924;15.474;2023-03-14T03:43:40;2.45;;;0.90;;
27201;SDS011;14717;46.924;15.474;2023-03-14T03:46:06;2.95;;;1.13;;
27201;SDS011;14717;46.924;15.474;2023-03-14T03:48:32;2.15;;;1.08;;
27201;SDS011;14717;46.924;15.474;2023-03-14T03:50:58;2.75;;;1.10;;
27201;SDS011;14717;46.924;15.474;2023-03-14T03:53:23;2.20;;;1.15;;
27201;SDS011;14717;46.924;15.474;2023-03-14T03:55:48;2.22;;;1.00;;
27201;SDS011;14717;46.924;15.474;2023-03-14T03:58:14;2.20;;;1.17;;
27201;SDS011;14717;46.924;15.474;2023-03-14T04:00:39;1.70;;;1.13;;
27201;SDS011;14717;46.924;15.474;2023-03-14T04:03:05;3.28;;;1.23;;
27201;SDS011;14717;46.924;15.474;2023-03-14T04:05:31;1.42;;;0.90;;
27201;SDS011;14717;46.924;15.474;2023-03-14T04:07:56;2.67;;;1.25;;
27201;SDS011;14717;46.924;15.474;2023-03-14T04:10:22;2.05;;;1.00;;
27201;SDS011;14717;46.924;15.474;2023-03-14T04:12:47;2.97;;;1.20;;
27201;SDS011;14717;46.924;15.474;2023-03-14T04:15:12;3.33;;;1.23;;
27201;SDS011;14717;46.924;15.474;2023-03-14T04:17:38;2.85;;;1.35;;
27201;SDS011;14717;46.924;15.474;2023-03-14T04:22:29;3.75;;;1.52;;
27201;SDS011;14717;46.924;15.474;2023-03-14T04:24:55;2.72;;;1.20;;
27201;SDS011;14717;46.924;15.474;2023-03-14T04:27:20;1.75;;;1.05;;
27201;SDS011;14717;46.924;15.474;2023-03-14T04:29:46;2.42;;;1.10;;
27201;SDS011;14717;46.924;15.474;2023-03-14T04:32:11;4.25;;;1.38;;
27201;SDS011;14717;46.924;15.474;2023-03-14T04:34:36;1.80;;;1.00;;
27201;SDS011;14717;46.924;15.474;2023-03-14T04:37:02;2.08;;;0.98;;
27201;SDS011;14717;46.924;15.474;2023-03-14T04:39:27;1.85;;;0.90;;
27201;SDS011;14717;46.924;15.474;2023-03-14T04:41:53;2.25;;;1.13;;
27201;SDS011;14717;46.924;15.474;2023-03-14T04:44:19;4.70;;;1.10;;
27201;SDS011;14717;46.924;15.474;2023-03-14T04:46:44;1.67;;;1.00;;
27201;SDS011;14717;46.924;15.474;2023-03-14T04:49:09;2.53;;;1.20;;
27201;SDS011;14717;46.924;15.474;2023-03-14T04:51:35;5.53;;;1.10;;
27201;SDS011;14717;46.924;15.474;2023-03-14T04:54:00;1.52;;;0.90;;
27201;SDS011;14717;46.924;15.474;2023-03-14T04:56:25;1.90;;;1.00;;
27201;SDS011;14717;46.924;15.474;2023-03-14T04:58:52;2.47;;;1.15;;
27201;SDS011;14717;46.924;15.474;2023-03-14T05:01:18;2.75;;;1.20;;
27201;SDS011;14717;46.924;15.474;2023-03-14T05:03:43;3.88;;;1.25;;
27201;SDS011;14717;46.924;15.474;2023-03-14T05:06:09;4.63;;;1.20;;
27201;SDS011;14717;46.924;15.474;2023-03-14T05:08:34;5.97;;;1.55;;
27201;SDS011;14717;46.924;15.474;2023-03-14T05:10:59;5.35;;;1.30;;
27201;SDS011;14717;46.924;15.474;2023-03-14T05:13:25;4.15;;;1.52;;
27201;SDS011;14717;46.924;15.474;2023-03-14T05:15:50;3.50;;;1.27;;
27201;SDS011;14717;46.924;15.474;2023-03-14T05:18:16;3.13;;;1.30;;
27201;SDS011;14717;46.924;15.474;2023-03-14T05:20:43;3.60;;;1.20;;
27201;SDS011;14717;46.924;15.474;2023-03-14T05:23:08;1.83;;;1.20;;
27201;SDS011;14717;46.924;15.474;2023-03-14T05:25:34;4.13;;;1.30;;
27201;SDS011;14717;46.924;15.474;2023-03-14T05:28:00;3.95;;;1.30;;
27201;SDS011;14717;46.924;15.474;2023-03-14T05:30:25;5.43;;;1.52;;
27201;SDS011;14717;46.924;15.474;2023-03-14T05:32:52;3.20;;;1.40;;
27201;SDS011;14717;46.924;15.474;2023-03-14T05:35:18;5.35;;;1.70;;
27201;SDS011;14717;46.924;15.474;2023-03-14T05:37:43;2.67;;;1.40;;
27201;SDS011;14717;46.924;15.474;2023-03-14T05:40:09;3.42;;;1.35;;
27201;SDS011;14717;46.924;15.474;2023-03-14T05:45:00;3.53;;;1.50;;
27201;SDS011;14717;46.924;15.474;2023-03-14T05:47:25;2.47;;;1.30;;
27201;SDS011;14717;46.924;15.474;2023-03-14T05:49:50;2.90;;;1.60;;
27201;SDS011;14717;46.924;15.474;2023-03-14T05:52:16;2.58;;;1.52;;
27201;SDS011;14717;46.924;15.474;2023-03-14T05:54:41;3.80;;;1.73;;
27201;SDS011;14717;46.924;15.474;2023-03-14T05:57:07;4.10;;;1.70;;
27201;SDS011;14717;46.924;15.474;2023-03-14T05:59:32;6.05;;;1.50;;
27201;SDS011;14717;46.924;15.474;2023-03-14T06:01:57;4.60;;;1.50;;
27201;SDS011;14717;46.924;15.474;2023-03-14T06:04:23;4.78;;;1.55;;
27201;SDS011;14717;46.924;15.474;2023-03-14T06:09:14;4.23;;;1.70;;
27201;SDS011;14717;46.924;15.474;2023-03-14T06:11:39;9.18;;;1.70;;
27201;SDS011;14717;46.924;15.474;2023-03-14T06:14:05;4.32;;;1.50;;
27201;SDS011;14717;46.924;15.474;2023-03-14T06:16:30;3.38;;;1.70;;
27201;SDS011;14717;46.924;15.474;2023-03-14T06:18:57;3.53;;;1.60;;
27201;SDS011;14717;46.924;15.474;2023-03-14T06:21:22;9.45;;;1.90;;
27201;SDS011;14717;46.924;15.474;2023-03-14T06:23:47;5.38;;;1.65;;
27201;SDS011;14717;46.924;15.474;2023-03-14T06:28:38;2.80;;;1.50;;
27201;SDS011;14717;46.924;15.474;2023-03-14T06:31:04;3.42;;;1.52;;
27201;SDS011;14717;46.924;15.474;2023-03-14T06:33:30;3.95;;;1.50;;
27201;SDS011;14717;46.924;15.474;2023-03-14T06:35:55;5.47;;;1.50;;
27201;SDS011;14717;46.924;15.474;2023-03-14T06:38:20;4.50;;;1.60;;
27201;SDS011;14717;46.924;15.474;2023-03-14T06:43:11;5.07;;;1.40;;
27201;SDS011;14717;46.924;15.474;2023-03-14T06:45:36;4.63;;;1.33;;
27201;SDS011;14717;46.924;15.474;2023-03-14T06:48:02;6.57;;;2.28;;
27201;SDS011;14717;46.924;15.474;2023-03-14T06:50:27;8.60;;;1.90;;
27201;SDS011;14717;46.924;15.474;2023-03-14T06:55:18;4.30;;;1.40;;
27201;SDS011;14717;46.924;15.474;2023-03-14T06:57:43;3.83;;;1.52;;
27201;SDS011;14717;46.924;15.474;2023-03-14T07:00:10;3.72;;;1.40;;
27201;SDS011;14717;46.924;15.474;2023-03-14T07:02:37;5.03;;;1.40;;
27201;SDS011;14717;46.924;15.474;2023-03-14T07:05:02;3.72;;;1.40;;
27201;SDS011;14717;46.924;15.474;2023-03-14T07:09:53;2.47;;;1.30;;
27201;SDS011;14717;46.924;15.474;2023-03-14T07:12:18;3.53;;;1.30;;
27201;SDS011;14717;46.924;15.474;2023-03-14T07:17:09;5.43;;;1.47;;
27201;SDS011;14717;46.924;15.474;2023-03-14T07:21:59;5.27;;;1.43;;
27201;SDS011;14717;46.924;15.474;2023-03-14T07:26:50;4.00;;;1.40;;
27201;SDS011;14717;46.924;15.474;2023-03-14T07:29:15;4.18;;;1.75;;
27201;SDS011;14717;46.924;15.474;2023-03-14T07:34:06;7.03;;;1.50;;
27201;SDS011;14717;46.924;15.474;2023-03-14T07:36:31;5.95;;;1.42;;
27201;SDS011;14717;46.924;15.474;2023-03-14T07:41:22;4.70;;;2.10;;
27201;SDS011;14717;46.924;15.474;2023-03-14T07:46:13;4.78;;;1.40;;
27201;SDS011;14717;46.924;15.474;2023-03-14T07:51:05;4.38;;;1.38;;
27201;SDS011;14717;46.924;15.474;2023-03-14T07:53:30;4.57;;;1.27;;
27201;SDS011;14717;46.924;15.474;2023-03-14T07:55:56;3.63;;;1.40;;
27201;SDS011;14717;46.924;15.474;2023-03-14T07:58:21;6.20;;;1.33;;
27201;SDS011;14717;46.924;15.474;2023-03-14T08:03:13;3.00;;;1.30;;
27201;SDS011;14717;46.924;15.474;2023-03-14T08:08:04;2.33;;;1.13;;
27201;SDS011;14717;46.924;15.474;2023-03-14T08:10:30;5.03;;;1.40;;
27201;SDS011;14717;46.924;15.474;2023-03-14T08:12:56;3.97;;;1.20;;
27201;SDS011;14717;46.924;15.474;2023-03-14T08:15:25;5.55;;;1.80;;
27201;SDS011;14717;46.924;15.474;2023-03-14T08:17:53;2.97;;;1.10;;
27201;SDS011;14717;46.924;15.474;2023-03-14T08:22:44;2.75;;;1.13;;
27201;SDS011;14717;46.924;15.474;2023-03-14T08:27:35;2.17;;;1.00;;
27201;SDS011;14717;46.924;15.474;2023-03-14T08:30:03;3.00;;;1.42;;
27201;SDS011;14717;46.924;15.474;2023-03-14T08:32:30;2.85;;;1.02;;
27201;SDS011;14717;46.924;15.474;2023-03-14T08:37:21;2.90;;;1.13;;
27201;SDS011;14717;46.924;15.474;2023-03-14T08:42:11;1.70;;;1.07;;
27201;SDS011;14717;46.924;15.474;2023-03-14T08:47:02;2.20;;;0.90;;
27201;SDS011;14717;46.924;15.474;2023-03-14T08:51:53;3.67;;;1.00;;
27201;SDS011;14717;46.924;15.474;2023-03-14T08:56:44;4.70;;;1.27;;
27201;SDS011;14717;46.924;15.474;2023-03-14T09:01:36;2.92;;;1.10;;
27201;SDS011;14717;46.924;15.474;2023-03-14T09:06:26;4.83;;;1.47;;
27201;SDS011;14717;46.924;15.474;2023-03-14T09:08:52;1.73;;;0.90;;
27201;SDS011;14717;46.924;15.474;2023-03-14T09:11:17;2.85;;;1.20;;
27201;SDS011;14717;46.924;15.474;2023-03-14T09:13:43;5.65;;;1.20;;
27201;SDS011;14717;46.924;15.474;2023-03-14T09:18:34;3.63;;;1.10;;
27201;SDS011;14717;46.924;15.474;2023-03-14T09:21:00;2.25;;;1.05;;
27201;SDS011;14717;46.924;15.474;2023-03-14T09:25:54;2.50;;;0.80;;
27201;SDS011;14717;46.924;15.474;2023-03-14T09:28:21;2.67;;;1.00;;
27201;SDS011;14717;46.924;15.474;2023-03-14T09:30:46;3.25;;;1.00;;
27201;SDS011;14717;46.924;15.474;2023-03-14T09:33:11;3.38;;;1.10;;
27201;SDS011;14717;46.924;15.474;2023-03-14T09:35:40;3.30;;;0.93;;
27201;SDS011;14717;46.924;15.474;2023-03-14T09:38:05;4.05;;;0.80;;
27201;SDS011;14717;46.924;15.474;2023-03-14T09:40:31;2.33;;;0.70;;
27201;SDS011;14717;46.924;15.474;2023-03-14T09:42:59;1.38;;;0.65;;
27201;SDS011;14717;46.924;15.474;2023-03-14T09:45:29;2.03;;;0.77;;
27201;SDS011;14717;46.924;15.474;2023-03-14T09:47:58;2.95;;;1.00;;
27201;SDS011;14717;46.924;15.474;2023-03-14T09:50:24;3.53;;;0.95;;
27201;SDS011;14717;46.924;15.474;2023-03-14T09:53:00;2.00;;;1.00;;
27201;SDS011;14717;46.924;15.474;2023-03-14T09:55:29;1.63;;;0.50;;
27201;SDS011;14717;46.924;15.474;2023-03-14T09:57:58;2.55;;;0.70;;
27201;SDS011;14717;46.924;15.474;2023-03-14T10:00:29;1.42;;;0.73;;
27201;SDS011;14717;46.924;15.474;2023-03-14T10:02:58;1.38;;;0.70;;
27201;SDS011;14717;46.924;15.474;2023-03-14T10:05:40;4.65;;;1.13;;
27201;SDS011;14717;46.924;15.474;2023-03-14T10:08:08;3.70;;;0.85;;
27201;SDS011;14717;46.924;15.474;2023-03-14T10:10:35;1.58;;;0.60;;
27201;SDS011;14717;46.924;15.474;2023-03-14T10:13:10;2.17;;;0.60;;
27201;SDS011;14717;46.924;15.474;2023-03-14T10:15:40;1.98;;;0.60;;
27201;SDS011;14717;46.924;15.474;2023-03-14T10:18:09;4.32;;;0.70;;
27201;SDS011;14717;46.924;15.474;2023-03-14T10:20:38;0.98;;;0.40;;
27201;SDS011;14717;46.924;15.474;2023-03-14T10:23:17;4.03;;;0.80;;
27201;SDS011;14717;46.924;15.474;2023-03-14T10:26:04;4.55;;;0.60;;
27201;SDS011;14717;46.924;15.474;2023-03-14T10:28:47;1.15;;;0.50;;
27201;SDS011;14717;46.924;15.474;2023-03-14T10:31:16;0.43;;;0.30;;
27201;SDS011;14717;46.924;15.474;2023-03-14T10:33:42;1.20;;;0.47;;
27201;SDS011;14717;46.924;15.474;2023-03-14T10:36:23;1.23;;;0.63;;
27201;SDS011;14717;46.924;15.474;2023-03-14T10:38:56;2.10;;;0.38;;
27201;SDS011;14717;46.924;15.474;2023-03-14T10:43:51;1.88;;;0.73;;
27201;SDS011;14717;46.924;15.474;2023-03-14T10:46:21;1.20;;;0.43;;
27201;SDS011;14717;46.924;15.474;2023-03-14T10:48:49;5.20;;;1.65;;
27201;SDS011;14717;46.924;15.474;2023-03-14T10:56:13;8.30;;;2.38;;
27201;SDS011;14717;46.924;15.474;2023-03-14T10:58:41;0.98;;;0.43;;
27201;SDS011;14717;46.924;15.474;2023-03-14T11:04:08;0.40;;;0.40;;
27201;SDS011;14717;46.924;15.474;2023-03-14T11:15:12;0.55;;;0.38;;
27201;SDS011;14717;46.924;15.474;2023-03-14T11:23:24;2.28;;;1.00;;
27201;SDS011;14717;46.924;15.474;2023-03-14T11:28:57;0.88;;;0.40;;
27201;SDS011;14717;46.924;15.474;2023-03-14T11:31:31;0.90;;;0.40;;
27201;SDS011;14717;46.924;15.474;2023-03-14T11:37:05;2.42;;;0.80;;
27201;SDS011;14717;46.924;15.474;2023-03-14T11:39:40;0.98;;;0.20;;
27201;SDS011;14717;46.924;15.474;2023-03-14T11:42:11;2.72;;;0.50;;
27201;SDS011;14717;46.924;15.474;2023-03-14T11:44:39;1.55;;;0.55;;
27201;SDS011;14717;46.924;15.474;2023-03-14T11:47:17;0.98;;;0.57;;
27201;SDS011;14717;46.924;15.474;2023-03-14T11:50:02;1.63;;;0.50;;
27201;SDS011;14717;46.924;15.474;2023-03-14T11:52:37;1.38;;;0.50;;
27201;SDS011;14717;46.924;15.474;2023-03-14T11:55:19;2.10;;;0.70;;
27201;SDS011;14717;46.924;15.474;2023-03-14T11:57:51;2.22;;;0.70;;
27201;SDS011;14717;46.924;15.474;2023-03-14T12:00:19;1.17;;;0.40;;
27201;SDS011;14717;46.924;15.474;2023-03-14T12:03:49;2.83;;;0.75;;
27201;SDS011;14717;46.924;15.474;2023-03-14T12:06:02;1.92;;;0.60;;
27201;SDS011;14717;46.924;15.474;2023-03-14T12:13:48;2.00;;;0.88;;
27201;SDS011;14717;46.924;15.474;2023-03-14T12:19:14;3.28;;;0.85;;
27201;SDS011;14717;46.924;15.474;2023-03-14T12:24:38;0.75;;;0.60;;
27201;SDS011;14717;46.924;15.474;2023-03-14T12:27:10;1.98;;;0.60;;
27201;SDS011;14717;46.924;15.474;2023-03-14T12:29:59;0.68;;;0.55;;
27201;SDS011;14717;46.924;15.474;2023-03-14T12:32:26;2.70;;;0.70;;
27201;SDS011;14717;46.924;15.474;2023-03-14T12:34:51;1.30;;;0.60;;
27201;SDS011;14717;46.924;15.474;2023-03-14T12:37:27;1.75;;;0.50;;
27201;SDS011;14717;46.924;15.474;2023-03-14T12:40:06;0.73;;;0.50;;
27201;SDS011;14717;46.924;15.474;2023-03-14T12:42:45;1.17;;;0.40;;
27201;SDS011;14717;46.924;15.474;2023-03-14T12:45:24;1.20;;;0.40;;
27201;SDS011;14717;46.924;15.474;2023-03-14T12:48:10;1.73;;;0.50;;
27201;SDS011;14717;46.924;15.474;2023-03-14T12:50:56;2.85;;;0.60;;
27201;SDS011;14717;46.924;15.474;2023-03-14T12:56:16;2.10;;;0.55;;
27201;SDS011;14717;46.924;15.474;2023-03-14T13:17:49;1.05;;;0.43;;
27201;SDS011;14717;46.924;15.474;2023-03-14T13:20:19;1.00;;;0.47;;
27201;SDS011;14717;46.924;15.474;2023-03-14T13:22:49;1.55;;;0.47;;
27201;SDS011;14717;46.924;15.474;2023-03-14T13:25:15;2.63;;;0.60;;
27201;SDS011;14717;46.924;15.474;2023-03-14T13:27:43;0.98;;;0.50;;
27201;SDS011;14717;46.924;15.474;2023-03-14T13:30:27;4.05;;;0.60;;
27201;SDS011;14717;46.924;15.474;2023-03-14T13:33:02;3.00;;;0.80;;
27201;SDS011;14717;46.924;15.474;2023-03-14T13:35:29;0.75;;;0.52;;
27201;SDS011;14717;46.924;15.474;2023-03-14T13:38:05;2.05;;;0.60;;
27201;SDS011;14717;46.924;15.474;2023-03-14T13:40:43;2.13;;;0.80;;
27201;SDS011;14717;46.924;15.474;2023-03-14T13:43:14;5.25;;;0.82;;
27201;SDS011;14717;46.924;15.474;2023-03-14T13:45:47;3.63;;;0.77;;
27201;SDS011;14717;46.924;15.474;2023-03-14T13:48:15;0.70;;;0.50;;
27201;SDS011;14717;46.924;15.474;2023-03-14T13:50:45;1.77;;;0.52;;
27201;SDS011;14717;46.924;15.474;2023-03-14T13:53:14;5.57;;;0.57;;
27201;SDS011;14717;46.924;15.474;2023-03-14T13:55:39;1.65;;;0.60;;
27201;SDS011;14717;46.924;15.474;2023-03-14T13:58:05;2.15;;;0.77;;
27201;SDS011;14717;46.924;15.474;2023-03-14T14:00:36;0.88;;;0.50;;
27201;SDS011;14717;46.924;15.474;2023-03-14T14:03:01;0.80;;;0.50;;
27201;SDS011;14717;46.924;15.474;2023-03-14T14:05:27;1.15;;;0.60;;
27201;SDS011;14717;46.924;15.474;2023-03-14T14:07:54;2.92;;;0.70;;
27201;SDS011;14717;46.924;15.474;2023-03-14T14:10:20;1.20;;;0.50;;
27201;SDS011;14717;46.924;15.474;2023-03-14T14:12:47;1.42;;;0.68;;
27201;SDS011;14717;46.924;15.474;2023-03-14T14:15:21;0.82;;;0.60;;
27201;SDS011;14717;46.924;15.474;2023-03-14T14:17:54;0.77;;;0.50;;
27201;SDS011;14717;46.924;15.474;2023-03-14T14:23:04;2.60;;;0.55;;
27201;SDS011;14717;46.924;15.474;2023-03-14T14:25:43;2.05;;;0.80;;
27201;SDS011;14717;46.924;15.474;2023-03-14T14:28:23;1.35;;;0.50;;
27201;SDS011;14717;46.924;15.474;2023-03-14T14:31:31;1.38;;;0.47;;
27201;SDS011;14717;46.924;15.474;2023-03-14T14:36:24;1.13;;;0.50;;
27201;SDS011;14717;46.924;15.474;2023-03-14T14:39:11;2.90;;;0.90;;
27201;SDS011;14717;46.924;15.474;2023-03-14T14:41:47;0.75;;;0.45;;
27201;SDS011;14717;46.924;15.474;2023-03-14T14:44:16;1.02;;;0.60;;
27201;SDS011;14717;46.924;15.474;2023-03-14T14:46:46;1.00;;;0.60;;
27201;SDS011;14717;46.924;15.474;2023-03-14T14:49:13;1.40;;;0.77;;
27201;SDS011;14717;46.924;15.474;2023-03-14T14:51:44;2.30;;;0.60;;
27201;SDS011;14717;46.924;15.474;2023-03-14T14:54:17;0.98;;;0.57;;
27201;SDS011;14717;46.924;15.474;2023-03-14T14:56:51;1.67;;;0.60;;
27201;SDS011;14717;46.924;15.474;2023-03-14T14:59:22;0.63;;;0.32;;
27201;SDS011;14717;46.924;15.474;2023-03-14T15:04:19;1.02;;;0.55;;
27201;SDS011;14717;46.924;15.474;2023-03-14T15:06:46;2.83;;;0.70;;
27201;SDS011;14717;46.924;15.474;2023-03-14T15:09:14;2.25;;;0.40;;
27201;SDS011;14717;46.924;15.474;2023-03-14T15:11:39;1.65;;;0.60;;
27201;SDS011;14717;46.924;15.474;2023-03-14T15:14:04;1.45;;;0.57;;
27201;SDS011;14717;46.924;15.474;2023-03-14T15:16:31;0.38;;;0.38;;
27201;SDS011;14717;46.924;15.474;2023-03-14T15:18:58;0.52;;;0.47;;
27201;SDS011;14717;46.924;15.474;2023-03-14T15:21:25;0.40;;;0.40;;
27201;SDS011;14717;46.924;15.474;2023-03-14T15:23:52;1.38;;;0.50;;
27201;SDS011;14717;46.924;15.474;2023-03-14T15:26:19;1.48;;;0.65;;
27201;SDS011;14717;46.924;15.474;2023-03-14T15:28:47;4.32;;;0.90;;
27201;SDS011;14717;46.924;15.474;2023-03-14T15:31:13;1.85;;;0.65;;
27201;SDS011;14717;46.924;15.474;2023-03-14T15:33:40;1.02;;;0.45;;
27201;SDS011;14717;46.924;15.474;2023-03-14T15:36:06;1.17;;;0.60;;
27201;SDS011;14717;46.924;15.474;2023-03-14T15:38:41;0.68;;;0.60;;
27201;SDS011;14717;46.924;15.474;2023-03-14T15:41:07;2.13;;;0.90;;
27201;SDS011;14717;46.924;15.474;2023-03-14T15:43:34;3.90;;;0.70;;
27201;SDS011;14717;46.924;15.474;2023-03-14T15:46:00;1.65;;;0.70;;
27201;SDS011;14717;46.924;15.474;2023-03-14T15:48:25;1.30;;;0.68;;
27201;SDS011;14717;46.924;15.474;2023-03-14T15:50:50;0.98;;;0.60;;
27201;SDS011;14717;46.924;15.474;2023-03-14T15:53:16;2.67;;;0.90;;
27201;SDS011;14717;46.924;15.474;2023-03-14T15:55:41;2.83;;;0.80;;
27201;SDS011;14717;46.924;15.474;2023-03-14T15:58:08;1.83;;;0.70;;
27201;SDS011;14717;46.924;15.474;2023-03-14T16:00:40;2.50;;;0.65;;
27201;SDS011;14717;46.924;15.474;2023-03-14T16:03:06;1.05;;;0.63;;
27201;SDS011;14717;46.924;15.474;2023-03-14T16:05:31;1.08;;;0.70;;
27201;SDS011;14717;46.924;15.474;2023-03-14T16:07:57;2.47;;;1.02;;
27201;SDS011;14717;46.924;15.474;2023-03-14T16:10:22;0.82;;;0.60;;
27201;SDS011;14717;46.924;15.474;2023-03-14T16:12:47;4.00;;;0.70;;
27201;SDS011;14717;46.924;15.474;2023-03-14T16:15:13;1.20;;;0.70;;
27201;SDS011;14717;46.924;15.474;2023-03-14T16:17:39;1.52;;;0.90;;
27201;SDS011;14717;46.924;15.474;2023-03-14T16:20:07;3.10;;;0.80;;
27201;SDS011;14717;46.924;15.474;2023-03-14T16:22:33;1.35;;;0.65;;
27201;SDS011;14717;46.924;15.474;2023-03-14T16:24:59;2.05;;;0.90;;
27201;SDS011;14717;46.924;15.474;2023-03-14T16:27:25;1.73;;;0.73;;
27201;SDS011;14717;46.924;15.474;2023-03-14T16:29:51;1.90;;;1.00;;
27201;SDS011;14717;46.924;15.474;2023-03-14T16:32:16;0.85;;;0.50;;
27201;SDS011;14717;46.924;15.474;2023-03-14T16:34:43;1.35;;;0.90;;
27201;SDS011;14717;46.924;15.474;2023-03-14T16:37:08;2.08;;;0.82;;
27201;SDS011;14717;46.924;15.474;2023-03-14T16:39:34;1.08;;;0.70;;
27201;SDS011;14717;46.924;15.474;2023-03-14T16:41:59;1.40;;;0.80;;
27201;SDS011;14717;46.924;15.474;2023-03-14T16:46:50;1.83;;;0.90;;
27201;SDS011;14717;46.924;15.474;2023-03-14T16:51:40;6.50;;;1.00;;
27201;SDS011;14717;46.924;15.474;2023-03-14T16:54:07;2.38;;;1.00;;
27201;SDS011;14717;46.924;15.474;2023-03-14T16:56:33;2.40;;;0.88;;
27201;SDS011;14717;46.924;15.474;2023-03-14T17:01:23;1.65;;;1.00;;
27201;SDS011;14717;46.924;15.474;2023-03-14T17:06:19;3.17;;;1.10;;
27201;SDS011;14717;46.924;15.474;2023-03-14T17:08:50;3.88;;;1.15;;
27201;SDS011;14717;46.924;15.474;2023-03-14T17:11:16;2.10;;;1.05;;
27201;SDS011;14717;46.924;15.474;2023-03-14T17:16:07;3.33;;;1.88;;
27201;SDS011;14717;46.924;15.474;2023-03-14T17:18:34;3.35;;;1.73;;
27201;SDS011;14717;46.924;15.474;2023-03-14T17:21:00;3.33;;;1.25;;
27201;SDS011;14717;46.924;15.474;2023-03-14T17:25:52;1.70;;;1.10;;
27201;SDS011;14717;46.924;15.474;2023-03-14T17:30:44;2.28;;;1.50;;
27201;SDS011;14717;46.924;15.474;2023-03-14T17:35:35;7.00;;;3.80;;